Sutherland, Nebraska
Current Conditions -  °F | °C
As of 3:53 PM on Sunday 23 Nov 2014 (Local Time) from KLBF Reporting Station
Clear Clear  
Wind Chill: 40°   Ceiling: Unl
Heat Index: 48°   Visibility: 10mi
Dew Point: 15°   Wind: 25mph
Humidity: 27%   Direction: 350°N
Pressure: 29.66"   Gusts: 35mph
Location:  41.16°N, 101.13°W
Report Text: KLBF 232153Z AUTO 35022G30KT 10SM CLR 09/M09 A2966 RMK AO2 PK WND 34030/2149 SLP048 T00891094 $
Loading
Personal Weather Stations






























Interactive Weather Map New forecast layout! Learn more

10-Day Weather Forecast

Advertisements
Track Severe Weather on mobile